Current Weather

Aghajari

Aghajari, Iran (OIAG)

Report from: Tuesday, August 16, 2022 6:00 AM UTC
Current time: Tuesday, August 16, 2022 6:55 AM UTC

Nearby weather
Weather history
Weather forecast

Temperature39.0°C (102.2°F)
Heat index45.9°C (114.6°F)
Dew point23.0°C (73.4°F)
Winds 10 kts (5.1 m/s, 11.5 mph) South (180°)
Visibility3.7 mi. (6 km)
Altimeter29.47 in.Hg (998 mB)
Relative humidity40 %
Density altitude3,589 ft. (1,094 m)
Flight conditions Marginal Visual Meteorological Conditions
Raw dataOIAG 160600Z 18010KT 6000 NSC 39/23 Q0998
An error has occurred. This application may no longer respond until reloaded. Reload 🗙